Terminal Aerodrome Forecast
Issued by NWS

Home | Current Version | Previous Version | Text Only | Print | Product List | Glossary On
Versions: 1 2 3 4 5 6 7 8 9 10 11 12 13 14 15
552
FTUS45 KABQ 240523
TAFLVS
TAF
KLVS 240523Z 2406/2506 10012KT P6SM BKN040
     FM241000 09008KT P6SM OVC018
     FM241500 16012KT P6SM OVC025
     FM241800 17015G23KT P6SM BKN040
     FM250200 15013KT P6SM BKN025=

USA.gov is the U.S. government's official web portal to all federal, state and local government web resources and services.